Time;durP1;ratioP1;P1;durP2;ratioP2;P2;SDS_P1;SDS_P2;PMS_P1;PMS_P2;Temp;Humidity;BMP_temperature;BMP_pressure;BME280_temperature;BME280_humidity;BME280_pressure;Samples;Min_cycle;Max_cycle;Signal;HPM_P1;HPM_P2
2023/06/17 00:02:20;;;;;;;11.23;7.80;;;18.40;65.70;;;;;;5043822;28;20208;-73
2023/06/17 00:04:46;;;;;;;11.03;7.53;;;18.40;65.80;;;;;;5043310;28;20195;-73
2023/06/17 00:07:12;;;;;;;11.73;7.60;;;18.30;66.00;;;;;;5043484;28;20197;-73
2023/06/17 00:09:41;;;;;;;12.80;7.17;;;18.30;66.10;;;;;;5040226;28;20453;-74
2023/06/17 00:12:07;;;;;;;11.70;7.40;;;18.20;66.30;;;;;;5041459;28;20496;-73
2023/06/17 00:14:33;;;;;;;16.20;7.30;;;18.20;66.40;;;;;;5046847;28;20595;-72
2023/06/17 00:17:00;;;;;;;10.57;7.70;;;18.20;66.40;;;;;;5043723;28;20960;-73
2023/06/17 00:19:29;;;;;;;13.43;7.27;;;18.10;66.40;;;;;;5045447;28;20425;-72
2023/06/17 00:21:55;;;;;;;10.60;7.27;;;18.10;66.30;;;;;;5042960;28;20798;-73
2023/06/17 00:24:21;;;;;;;14.23;7.93;;;18.10;66.70;;;;;;5047761;28;20459;-73
2023/06/17 00:26:47;;;;;;;11.70;8.20;;;18.00;66.70;;;;;;5036024;28;20222;-73
2023/06/17 00:29:12;;;;;;;16.53;8.97;;;17.90;67.20;;;;;;5043837;28;20434;-73
2023/06/17 00:31:38;;;;;;;15.20;8.67;;;17.90;67.50;;;;;;5044934;28;20477;-74
2023/06/17 00:34:04;;;;;;;14.70;8.77;;;17.90;67.60;;;;;;5047108;28;20594;-71
2023/06/17 00:36:30;;;;;;;13.60;7.40;;;18.00;67.20;;;;;;5044355;28;20431;-74
2023/06/17 00:38:55;;;;;;;10.03;7.27;;;17.90;66.90;;;;;;5047414;28;20598;-74
2023/06/17 00:41:21;;;;;;;13.03;7.63;;;17.80;67.20;;;;;;5040435;28;20996;-73
2023/06/17 00:43:46;;;;;;;11.90;7.70;;;17.80;67.30;;;;;;5041354;28;20233;-73
2023/06/17 00:46:34;;;;;;;14.20;7.80;;;17.70;67.60;;;;;;5041264;28;20230;-72
2023/06/17 00:49:00;;;;;;;13.43;7.63;;;17.80;67.20;;;;;;5052581;28;20181;-72
2023/06/17 00:51:25;;;;;;;10.40;7.10;;;17.80;67.00;;;;;;5048402;28;20505;-71
2023/06/17 00:53:51;;;;;;;10.03;6.27;;;17.90;67.00;;;;;;5048344;28;20537;-72
2023/06/17 00:56:17;;;;;;;8.33;5.60;;;17.90;66.40;;;;;;5038066;28;20188;-72
2023/06/17 00:58:44;;;;;;;13.27;7.83;;;17.90;66.30;;;;;;5048805;28;20647;-71
2023/06/17 01:01:10;;;;;;;9.30;6.63;;;17.80;66.10;;;;;;5045270;28;20181;-71
2023/06/17 01:03:36;;;;;;;9.20;7.67;;;17.90;66.30;;;;;;5050366;28;20962;-71
2023/06/17 01:06:11;;;;;;;11.70;7.30;;;17.80;66.30;;;;;;5057753;28;22325;-73
2023/06/17 01:08:47;;;;;;;11.50;7.60;;;17.70;66.60;;;;;;5048149;28;20223;-71
2023/06/17 01:11:16;;;;;;;11.93;6.63;;;17.60;67.00;;;;;;5024253;28;20475;-72
2023/06/17 01:13:43;;;;;;;9.67;7.00;;;17.60;67.00;;;;;;5045213;28;20485;-72
2023/06/17 01:16:09;;;;;;;15.90;7.40;;;17.60;67.20;;;;;;5039301;28;20454;-71
2023/06/17 01:18:36;;;;;;;18.53;8.67;;;17.50;67.50;;;;;;5047350;28;20948;-72
2023/06/17 01:21:03;;;;;;;12.93;7.90;;;17.50;67.70;;;;;;5043386;28;20423;-73
2023/06/17 01:23:34;;;;;;;12.00;7.30;;;17.40;67.70;;;;;;5044789;28;20504;-72
2023/06/17 01:26:05;;;;;;;15.93;7.23;;;17.50;67.60;;;;;;5047630;28;20956;-72
2023/06/17 01:28:31;;;;;;;11.33;7.77;;;17.60;67.30;;;;;;5022582;28;20433;-71
2023/06/17 01:30:57;;;;;;;14.40;7.60;;;17.70;67.30;;;;;;5045423;28;20975;-72
2023/06/17 01:33:24;;;;;;;14.50;7.93;;;17.70;67.20;;;;;;5045350;28;20471;-72
2023/06/17 01:36:04;;;;;;;14.30;7.77;;;17.60;67.50;;;;;;5048631;28;20600;-72
2023/06/17 01:38:41;;;;;;;11.43;7.00;;;17.50;67.70;;;;;;5032235;28;20514;-72
2023/06/17 01:41:10;;;;;;;8.67;6.80;;;17.40;67.90;;;;;;5040208;28;20454;-72
2023/06/17 01:43:37;;;;;;;10.23;5.90;;;17.40;68.20;;;;;;5046659;28;20555;-72
2023/06/17 01:46:05;;;;;;;12.30;7.57;;;17.30;68.20;;;;;;5050746;28;20504;-73
2023/06/17 01:48:31;;;;;;;10.43;7.10;;;17.30;68.20;;;;;;5051989;28;20430;-71
2023/06/17 01:50:57;;;;;;;12.90;8.37;;;17.40;68.60;;;;;;5045520;28;20520;-72
2023/06/17 01:53:24;;;;;;;12.50;7.50;;;17.40;68.50;;;;;;5042683;28;20842;-71
2023/06/17 01:55:50;;;;;;;12.30;8.27;;;17.40;68.50;;;;;;5044580;28;20185;-72
2023/06/17 01:58:16;;;;;;;12.43;7.87;;;17.40;68.20;;;;;;5046055;28;20427;-72
2023/06/17 02:00:42;;;;;;;12.33;8.17;;;17.40;68.20;;;;;;5039403;28;20489;-72
2023/06/17 02:03:07;;;;;;;12.87;7.40;;;17.50;67.90;;;;;;5049918;28;20684;-71
2023/06/17 02:05:33;;;;;;;9.20;6.77;;;17.40;67.90;;;;;;5045085;28;20197;-71
2023/06/17 02:08:05;;;;;;;9.90;6.57;;;17.30;68.00;;;;;;5048245;28;20227;-73
2023/06/17 02:10:31;;;;;;;11.90;7.90;;;17.30;67.90;;;;;;5048751;28;20251;-72
2023/06/17 02:12:57;;;;;;;13.97;8.03;;;17.10;68.90;;;;;;5052257;28;20450;-72
2023/06/17 02:15:22;;;;;;;11.23;8.17;;;17.10;69.40;;;;;;5047146;28;20419;-71
2023/06/17 02:17:48;;;;;;;14.23;8.17;;;17.10;69.20;;;;;;5032939;28;20253;-72
2023/06/17 02:20:14;;;;;;;11.10;7.90;;;17.20;68.90;;;;;;5055050;28;20188;-71
2023/06/17 02:22:39;;;;;;;11.20;7.40;;;17.10;69.10;;;;;;5050224;28;20207;-72
2023/06/17 02:25:06;;;;;;;12.57;7.23;;;17.00;69.10;;;;;;5031100;28;20197;-71
2023/06/17 02:27:32;;;;;;;12.73;7.20;;;16.90;69.50;;;;;;5034364;28;20191;-71
2023/06/17 02:29:58;;;;;;;9.33;6.70;;;16.80;69.80;;;;;;5058723;28;20424;-72
2023/06/17 02:32:23;;;;;;;9.80;6.57;;;16.80;69.80;;;;;;5051258;28;20226;-71
2023/06/17 02:34:49;;;;;;;11.20;6.90;;;16.70;69.50;;;;;;5041053;28;20192;-71
2023/06/17 02:37:15;;;;;;;9.60;6.60;;;16.80;69.10;;;;;;5044346;28;20185;-71
2023/06/17 02:39:41;;;;;;;12.03;6.83;;;16.80;68.90;;;;;;5043917;28;20653;-71
2023/06/17 02:42:11;;;;;;;10.57;6.40;;;16.80;68.30;;;;;;5046321;28;20946;-72
2023/06/17 02:44:37;;;;;;;11.27;7.03;;;16.90;68.30;;;;;;5052238;28;20481;-72
2023/06/17 02:47:03;;;;;;;9.53;6.70;;;16.80;68.30;;;;;;5050293;28;20438;-71
2023/06/17 02:49:28;;;;;;;9.73;6.70;;;16.80;68.30;;;;;;5040770;28;20269;-71
2023/06/17 02:51:54;;;;;;;10.67;7.10;;;16.80;68.30;;;;;;5036272;28;20555;-71
2023/06/17 02:54:19;;;;;;;12.00;7.17;;;16.80;68.60;;;;;;5058936;28;20230;-71
2023/06/17 02:56:45;;;;;;;10.03;7.13;;;16.80;68.60;;;;;;5058087;28;20188;-72
2023/06/17 02:59:14;;;;;;;9.90;6.53;;;16.80;69.20;;;;;;5057294;28;20181;-71
2023/06/17 03:01:42;;;;;;;9.87;6.70;;;16.80;68.90;;;;;;5058253;28;20257;-72
2023/06/17 03:04:10;;;;;;;10.57;7.10;;;16.80;68.30;;;;;;5049882;28;20467;-71
2023/06/17 03:06:37;;;;;;;10.90;6.90;;;16.80;68.20;;;;;;5054084;28;20941;-71
2023/06/17 03:09:03;;;;;;;11.03;7.20;;;16.70;68.20;;;;;;5058001;28;20473;-73
2023/06/17 03:11:29;;;;;;;10.70;7.30;;;16.70;68.50;;;;;;5053524;28;20471;-71
2023/06/17 03:13:55;;;;;;;10.83;7.10;;;16.70;68.60;;;;;;5051905;28;20474;-73
2023/06/17 03:16:23;;;;;;;10.93;7.20;;;16.60;68.60;;;;;;5050593;28;20910;-71
2023/06/17 03:18:48;;;;;;;9.87;6.67;;;16.60;68.80;;;;;;5025061;28;20506;-70
2023/06/17 03:21:14;;;;;;;9.43;7.57;;;16.60;68.80;;;;;;5053949;28;20504;-71
2023/06/17 03:23:40;;;;;;;9.07;6.87;;;16.70;69.40;;;;;;5031367;28;20589;-73
2023/06/17 03:26:06;;;;;;;9.33;6.80;;;16.70;69.70;;;;;;5048878;28;20423;-72
2023/06/17 03:28:32;;;;;;;10.67;7.60;;;16.70;69.80;;;;;;5052647;28;20660;-72
2023/06/17 03:30:58;;;;;;;10.23;6.87;;;16.60;69.90;;;;;;5046904;28;20557;-72
2023/06/17 03:33:23;;;;;;;10.23;7.70;;;16.50;69.90;;;;;;5053750;28;20690;-73
2023/06/17 03:35:49;;;;;;;11.37;7.40;;;16.40;70.20;;;;;;5046664;28;20185;-72
2023/06/17 03:38:15;;;;;;;12.57;8.40;;;16.40;70.40;;;;;;5052759;28;20188;-71
2023/06/17 03:40:40;;;;;;;10.60;7.40;;;16.40;70.40;;;;;;5043984;28;20216;-73
2023/06/17 03:43:06;;;;;;;14.17;8.00;;;16.30;70.50;;;;;;5048079;28;20234;-72
2023/06/17 03:45:35;;;;;;;12.67;7.20;;;16.40;70.50;;;;;;5043247;28;20204;-72
2023/06/17 03:48:00;;;;;;;11.00;7.60;;;16.40;69.90;;;;;;5054204;28;20200;-71
2023/06/17 03:50:26;;;;;;;13.00;7.67;;;16.40;69.50;;;;;;5042210;28;20481;-72
2023/06/17 03:52:52;;;;;;;13.17;8.97;;;16.50;69.80;;;;;;5046075;28;20718;-74
2023/06/17 03:55:17;;;;;;;11.90;7.50;;;16.50;70.10;;;;;;5049557;28;20177;-74
2023/06/17 03:57:43;;;;;;;12.17;7.67;;;16.40;70.10;;;;;;5047920;28;20790;-73
2023/06/17 04:00:11;;;;;;;12.40;7.90;;;16.40;70.20;;;;;;5051083;28;20234;-74
2023/06/17 04:02:36;;;;;;;14.80;8.40;;;16.40;70.20;;;;;;5049138;28;20208;-73
2023/06/17 04:05:04;;;;;;;13.90;8.43;;;16.30;70.50;;;;;;5044824;28;20922;-72
2023/06/17 04:07:32;;;;;;;16.63;8.30;;;16.20;70.80;;;;;;5047370;28;20187;-74
2023/06/17 04:09:58;;;;;;;13.30;7.93;;;16.20;71.00;;;;;;5041785;28;20428;-73
2023/06/17 04:12:24;;;;;;;10.97;7.80;;;16.20;71.00;;;;;;5047968;28;20508;-72
2023/06/17 04:14:49;;;;;;;11.30;8.20;;;16.10;71.00;;;;;;5042549;28;20259;-72
2023/06/17 04:17:17;;;;;;;9.97;7.10;;;16.10;71.00;;;;;;5041997;28;20271;-71
2023/06/17 04:19:43;;;;;;;10.40;8.50;;;16.00;71.10;;;;;;5042281;28;20187;-72
2023/06/17 04:22:09;;;;;;;18.50;9.87;;;16.00;71.10;;;;;;5046559;28;20427;-71
2023/06/17 04:24:34;;;;;;;12.90;8.53;;;16.00;71.10;;;;;;5042494;28;20535;-72
2023/06/17 04:27:00;;;;;;;12.73;8.33;;;16.00;71.00;;;;;;5041914;28;20536;-73
2023/06/17 04:29:29;;;;;;;13.23;7.80;;;16.00;70.80;;;;;;5027168;28;20183;-73
2023/06/17 04:31:56;;;;;;;10.07;7.30;;;16.00;70.80;;;;;;5043343;28;20200;-72
2023/06/17 04:34:22;;;;;;;13.53;8.27;;;16.00;70.80;;;;;;5043837;28;21051;-72
2023/06/17 04:36:56;;;;;;;15.37;7.90;;;16.00;70.80;;;;;;5044143;28;20462;-73
2023/06/17 04:39:26;;;;;;;12.33;7.57;;;16.00;71.00;;;;;;5042764;28;20425;-73
2023/06/17 04:41:53;;;;;;;11.67;7.53;;;16.10;70.80;;;;;;5045888;28;20425;-74
2023/06/17 04:44:18;;;;;;;12.03;8.10;;;16.10;70.80;;;;;;5043714;28;20462;-72
2023/06/17 04:46:45;;;;;;;13.50;8.20;;;16.10;70.80;;;;;;5029042;28;20435;-73
2023/06/17 04:49:11;;;;;;;11.00;7.43;;;16.10;70.70;;;;;;5047637;28;20177;-75
2023/06/17 04:51:38;;;;;;;14.00;8.60;;;16.00;71.00;;;;;;5039432;28;20558;-72
2023/06/17 04:54:07;;;;;;;12.90;8.97;;;16.00;71.00;;;;;;5042734;28;20446;-72
2023/06/17 04:56:32;;;;;;;11.60;7.97;;;16.00;71.30;;;;;;5045626;28;20479;-72
2023/06/17 04:58:58;;;;;;;13.00;8.10;;;16.10;71.00;;;;;;5043384;28;20432;-73
2023/06/17 05:01:24;;;;;;;11.67;8.23;;;16.20;70.80;;;;;;5044698;28;20184;-73
2023/06/17 05:03:50;;;;;;;16.30;9.27;;;16.20;71.00;;;;;;5039645;28;20701;-72
2023/06/17 05:06:15;;;;;;;14.13;8.60;;;16.20;70.50;;;;;;5045889;28;21000;-74
2023/06/17 05:08:41;;;;;;;13.83;8.80;;;16.20;70.70;;;;;;5048139;28;20527;-71
2023/06/17 05:11:06;;;;;;;15.13;9.43;;;16.30;70.50;;;;;;5023162;28;20226;-73
2023/06/17 05:13:32;;;;;;;12.90;8.50;;;16.30;70.70;;;;;;5040089;28;20238;-73
2023/06/17 05:15:57;;;;;;;13.90;8.80;;;16.30;70.40;;;;;;5041863;28;20276;-72
2023/06/17 05:18:23;;;;;;;11.60;7.73;;;16.30;70.70;;;;;;5038513;28;20184;-73
2023/06/17 05:20:49;;;;;;;13.80;8.67;;;16.30;70.50;;;;;;5043495;28;20187;-72
2023/06/17 05:23:14;;;;;;;12.57;8.53;;;16.40;70.50;;;;;;5042084;28;20216;-73
2023/06/17 05:25:40;;;;;;;12.37;9.37;;;16.40;70.50;;;;;;5021611;28;20203;-74
2023/06/17 05:28:06;;;;;;;11.90;9.50;;;16.50;70.50;;;;;;5042427;28;20187;-72
2023/06/17 05:30:32;;;;;;;12.70;8.77;;;16.60;70.40;;;;;;5048056;28;20284;-73
2023/06/17 05:32:58;;;;;;;12.77;9.80;;;16.70;70.20;;;;;;5042752;28;20500;-74
2023/06/17 05:35:23;;;;;;;13.40;8.87;;;16.90;69.80;;;;;;5048132;28;20497;-74
2023/06/17 05:37:49;;;;;;;13.23;8.87;;;17.00;69.50;;;;;;5044571;28;20192;-72
2023/06/17 05:40:14;;;;;;;14.00;9.50;;;17.10;69.40;;;;;;5052067;28;20198;-75
2023/06/17 05:42:40;;;;;;;11.60;8.90;;;17.20;69.40;;;;;;5040724;28;20225;-73
2023/06/17 05:45:06;;;;;;;13.73;9.83;;;17.30;69.20;;;;;;5050060;28;20275;-73
2023/06/17 05:47:32;;;;;;;12.00;8.70;;;17.40;68.80;;;;;;5044571;28;20192;-71
2023/06/17 05:49:58;;;;;;;12.70;9.17;;;17.50;68.30;;;;;;5041639;28;20431;-74
2023/06/17 05:52:24;;;;;;;10.80;8.40;;;17.60;68.20;;;;;;5036596;28;20553;-73
2023/06/17 05:54:49;;;;;;;14.50;9.90;;;17.80;67.60;;;;;;5054702;28;20192;-73
2023/06/17 05:57:15;;;;;;;12.67;8.83;;;17.80;67.20;;;;;;5040866;28;20498;-73
2023/06/17 05:59:40;;;;;;;12.97;8.93;;;17.60;67.50;;;;;;5043853;28;20185;-72
2023/06/17 06:02:06;;;;;;;15.37;9.37;;;17.80;67.60;;;;;;5039347;28;20227;-72
2023/06/17 06:04:32;;;;;;;14.90;9.10;;;17.90;67.30;;;;;;5043242;28;20616;-74
2023/06/17 06:06:57;;;;;;;12.20;9.57;;;18.00;67.20;;;;;;5038451;28;20190;-72
2023/06/17 06:09:23;;;;;;;13.90;9.37;;;18.20;66.40;;;;;;5046717;28;20202;-72
2023/06/17 06:11:48;;;;;;;17.73;10.70;;;18.10;66.30;;;;;;5029395;28;20224;-74
2023/06/17 06:14:14;;;;;;;12.50;8.70;;;18.20;66.10;;;;;;5044977;28;20200;-74
2023/06/17 06:16:40;;;;;;;16.23;10.03;;;18.40;66.10;;;;;;5038927;28;20206;-72
2023/06/17 06:19:05;;;;;;;13.60;8.97;;;18.70;65.30;;;;;;5044265;28;20577;-74
2023/06/17 06:21:31;;;;;;;19.60;10.77;;;18.70;66.00;;;;;;5044154;28;20277;-74
2023/06/17 06:23:56;;;;;;;13.10;9.07;;;18.80;65.80;;;;;;5047804;28;20348;-73
2023/06/17 06:26:22;;;;;;;13.43;9.23;;;19.00;64.80;;;;;;5042365;28;20188;-73
2023/06/17 06:28:47;;;;;;;14.23;9.93;;;19.20;64.50;;;;;;5045345;28;20192;-73
2023/06/17 06:31:13;;;;;;;13.50;10.13;;;19.40;63.40;;;;;;5043742;28;20639;-72
2023/06/17 06:33:38;;;;;;;16.20;10.67;;;19.20;64.20;;;;;;5048122;28;20692;-71
2023/06/17 06:36:04;;;;;;;14.00;9.17;;;19.30;64.50;;;;;;5041195;28;20173;-73
2023/06/17 06:38:30;;;;;;;15.33;9.50;;;19.40;64.20;;;;;;5040304;28;20185;-73
2023/06/17 06:40:55;;;;;;;15.67;9.87;;;19.40;63.80;;;;;;5040948;28;20250;-72
2023/06/17 06:43:23;;;;;;;14.37;9.60;;;19.50;63.70;;;;;;5042761;28;20280;-73
2023/06/17 06:45:49;;;;;;;12.83;9.33;;;19.50;63.40;;;;;;5043113;28;20259;-73
2023/06/17 06:48:14;;;;;;;14.77;9.37;;;19.70;63.70;;;;;;5042778;28;20843;-72
2023/06/17 06:50:40;;;;;;;13.83;9.30;;;19.80;62.60;;;;;;5043552;28;20270;-71
2023/06/17 06:53:05;;;;;;;14.13;9.60;;;19.80;62.90;;;;;;5021870;28;20886;-72
2023/06/17 06:55:31;;;;;;;14.20;10.50;;;20.00;62.30;;;;;;5043578;28;20621;-73
2023/06/17 06:57:56;;;;;;;12.63;9.00;;;20.10;62.20;;;;;;5041124;28;20182;-71
2023/06/17 07:00:22;;;;;;;13.60;9.47;;;20.30;61.20;;;;;;5047956;28;20195;-73
2023/06/17 07:02:48;;;;;;;16.63;10.77;;;20.50;60.40;;;;;;5037943;28;20282;-72
2023/06/17 07:05:13;;;;;;;13.33;9.97;;;20.50;61.50;;;;;;5042842;28;20661;-70
2023/06/17 07:07:39;;;;;;;20.53;10.93;;;20.30;62.00;;;;;;5034862;28;20186;-71
2023/06/17 07:10:05;;;;;;;18.90;9.73;;;20.40;61.90;;;;;;5031419;28;20632;-72
2023/06/17 07:12:31;;;;;;;16.63;10.27;;;20.40;61.90;;;;;;5039348;28;20217;-71
2023/06/17 07:14:56;;;;;;;14.53;9.13;;;20.60;61.90;;;;;;5044626;28;20419;-72
2023/06/17 07:17:22;;;;;;;13.47;9.60;;;20.80;61.00;;;;;;5035458;28;20700;-73
2023/06/17 07:19:47;;;;;;;16.20;10.37;;;20.80;60.40;;;;;;5044510;28;20188;-72
2023/06/17 07:22:13;;;;;;;17.67;9.80;;;20.90;60.10;;;;;;5041868;28;20282;-70
2023/06/17 07:24:39;;;;;;;18.40;10.70;;;21.00;60.10;;;;;;5040942;28;20196;-73
2023/06/17 07:27:04;;;;;;;16.13;9.13;;;21.10;60.00;;;;;;5041552;28;20199;-73
2023/06/17 07:29:30;;;;;;;17.60;9.80;;;21.30;59.50;;;;;;5031948;28;20231;-72
2023/06/17 07:31:56;;;;;;;15.57;9.87;;;21.50;58.20;;;;;;5044651;28;20587;-72
2023/06/17 07:34:22;;;;;;;15.97;10.87;;;21.50;58.40;;;;;;5043656;28;20570;-75
2023/06/17 07:36:52;;;;;;;16.63;10.20;;;21.50;58.90;;;;;;5050408;28;20194;-73
2023/06/17 07:39:19;;;;;;;13.60;9.80;;;21.60;59.30;;;;;;5045508;28;20235;-73
2023/06/17 07:41:44;;;;;;;15.30;10.03;;;21.60;59.20;;;;;;5032897;28;20922;-74
2023/06/17 07:44:10;;;;;;;15.67;10.17;;;21.70;59.30;;;;;;5043378;28;20468;-73
2023/06/17 07:46:35;;;;;;;16.10;10.03;;;21.80;58.70;;;;;;5049745;28;20659;-74
2023/06/17 07:49:01;;;;;;;13.77;9.67;;;21.90;58.10;;;;;;5043487;28;20336;-72
2023/06/17 07:51:27;;;;;;;17.50;10.13;;;22.10;57.70;;;;;;5051447;28;20292;-74
2023/06/17 07:53:53;;;;;;;13.23;9.37;;;22.30;56.80;;;;;;5042928;28;20240;-74
2023/06/17 07:56:19;;;;;;;18.67;9.70;;;22.30;56.80;;;;;;5034601;28;20430;-71
2023/06/17 07:58:45;;;;;;;15.50;9.57;;;22.40;57.00;;;;;;5038698;28;20177;-73
2023/06/17 08:01:11;;;;;;;10.70;9.00;;;22.60;56.40;;;;;;5053340;28;20451;-72
2023/06/17 08:03:37;;;;;;;14.50;10.20;;;22.80;55.70;;;;;;5039812;28;20464;-72
2023/06/17 08:06:03;;;;;;;14.67;9.83;;;22.70;55.20;;;;;;5053052;28;20421;-72
2023/06/17 08:08:29;;;;;;;17.37;8.87;;;22.80;54.60;;;;;;5049313;28;20278;-73
2023/06/17 08:10:55;;;;;;;13.73;9.60;;;22.80;54.80;;;;;;5052915;28;20899;-73
2023/06/17 08:13:20;;;;;;;17.17;10.10;;;22.90;54.60;;;;;;5043259;28;20590;-73
2023/06/17 08:15:46;;;;;;;15.53;9.67;;;22.90;55.00;;;;;;5033353;28;20598;-73
2023/06/17 08:18:11;;;;;;;15.60;9.20;;;22.90;54.80;;;;;;5043945;28;20174;-75
2023/06/17 08:20:37;;;;;;;12.13;9.23;;;23.10;54.20;;;;;;5052115;28;20205;-74
2023/06/17 08:23:03;;;;;;;11.73;8.80;;;23.20;53.60;;;;;;5035692;28;20272;-72
2023/06/17 08:25:29;;;;;;;11.90;8.73;;;23.20;53.20;;;;;;5050710;28;20430;-73
2023/06/17 08:27:54;;;;;;;13.03;9.23;;;23.40;52.00;;;;;;5043871;28;20564;-75
2023/06/17 08:30:20;;;;;;;12.50;9.13;;;23.50;52.00;;;;;;5046499;28;20226;-72
2023/06/17 08:32:45;;;;;;;12.77;8.70;;;23.50;53.70;;;;;;5043069;28;20566;-75
2023/06/17 08:35:11;;;;;;;11.43;9.50;;;23.40;51.70;;;;;;5050077;28;20913;-72
2023/06/17 08:37:37;;;;;;;15.37;8.83;;;23.40;52.40;;;;;;5043364;28;20190;-73
2023/06/17 08:40:06;;;;;;;15.90;10.20;;;23.30;52.40;;;;;;5046177;28;20249;-73
2023/06/17 08:42:32;;;;;;;14.07;9.93;;;23.50;51.30;;;;;;5045442;28;20245;-73
2023/06/17 08:45:00;;;;;;;12.40;8.87;;;23.40;51.70;;;;;;5034106;28;20457;-74
2023/06/17 08:47:26;;;;;;;13.20;8.67;;;23.50;51.60;;;;;;5046332;28;20461;-73
2023/06/17 08:49:57;;;;;;;13.50;9.40;;;23.70;50.30;;;;;;5048284;28;20458;-75
2023/06/17 08:52:24;;;;;;;13.23;9.87;;;23.80;49.90;;;;;;5043747;28;20476;-72
2023/06/17 08:54:51;;;;;;;11.57;9.00;;;23.80;50.20;;;;;;5046363;28;20441;-72
2023/06/17 08:57:17;;;;;;;10.03;8.63;;;23.70;50.60;;;;;;5043279;28;20468;-73
2023/06/17 08:59:43;;;;;;;10.00;7.37;;;23.70;50.60;;;;;;5042903;28;20457;-72
2023/06/17 09:02:12;;;;;;;15.33;8.70;;;23.80;50.10;;;;;;5048276;28;20465;-73
2023/06/17 09:04:38;;;;;;;10.83;8.13;;;23.90;48.90;;;;;;5044445;28;20439;-73
2023/06/17 09:07:06;;;;;;;10.87;8.53;;;24.00;48.90;;;;;;5045134;28;20451;-74
2023/06/17 09:09:32;;;;;;;12.73;8.50;;;24.10;47.90;;;;;;5037179;28;20432;-73
2023/06/17 09:12:05;;;;;;;11.60;8.20;;;24.20;47.80;;;;;;5046536;28;21047;-73
2023/06/17 09:14:31;;;;;;;9.63;7.53;;;24.40;47.70;;;;;;5044691;28;20274;-73
2023/06/17 09:16:58;;;;;;;12.63;7.53;;;24.40;47.10;;;;;;5042812;28;20979;-72
2023/06/17 09:19:24;;;;;;;16.60;8.70;;;24.40;44.90;;;;;;5041938;28;20412;-74
2023/06/17 09:21:49;;;;;;;15.90;8.93;;;24.30;44.90;;;;;;5042634;28;20446;-73
2023/06/17 09:24:15;;;;;;;10.97;8.00;;;24.10;45.50;;;;;;5044938;28;20690;-74
2023/06/17 09:26:43;;;;;;;11.87;8.20;;;24.40;45.70;;;;;;5032737;28;20287;-73
2023/06/17 09:29:13;;;;;;;12.90;8.60;;;24.50;45.40;;;;;;5041875;28;20243;-74
2023/06/17 09:31:55;;;;;;;12.10;8.23;;;24.40;45.40;;;;;;5046743;28;21011;-75
2023/06/17 09:34:22;;;;;;;13.70;7.80;;;24.20;45.80;;;;;;5049536;28;20824;-74
2023/06/17 09:37:00;;;;;;;14.30;7.57;;;24.40;44.20;;;;;;5046864;28;20420;-74
2023/06/17 09:39:33;;;;;;;11.03;8.03;;;24.70;44.50;;;;;;5043640;28;20510;-72
2023/06/17 09:42:09;;;;;;;10.67;8.10;;;24.70;44.50;;;;;;5043501;28;21048;-72
2023/06/17 09:44:40;;;;;;;11.13;6.90;;;24.70;43.90;;;;;;5045455;28;20522;-73
2023/06/17 09:47:07;;;;;;;11.43;7.17;;;24.60;44.10;;;;;;5043718;28;20428;-72
2023/06/17 09:49:35;;;;;;;10.97;7.13;;;24.80;40.60;;;;;;5048550;28;20438;-74
2023/06/17 09:52:02;;;;;;;9.70;7.00;;;24.80;42.30;;;;;;5041844;28;20464;-74
2023/06/17 09:54:29;;;;;;;12.40;7.80;;;24.70;42.20;;;;;;5043182;28;20603;-73
2023/06/17 09:56:58;;;;;;;13.30;6.20;;;24.70;39.60;;;;;;5036967;28;20436;-73
2023/06/17 09:59:24;;;;;;;9.60;6.70;;;25.00;38.70;;;;;;5041882;28;20424;-71
2023/06/17 10:01:50;;;;;;;12.67;7.37;;;25.20;37.40;;;;;;5042923;28;20511;-71
2023/06/17 10:04:16;;;;;;;14.43;6.47;;;24.90;37.40;;;;;;5045261;28;20509;-72
2023/06/17 10:06:45;;;;;;;9.97;6.30;;;25.00;37.80;;;;;;5049516;28;20456;-74
2023/06/17 10:09:13;;;;;;;11.67;6.23;;;25.30;37.20;;;;;;5044951;28;20187;-73
2023/06/17 10:11:43;;;;;;;10.30;6.50;;;25.50;37.20;;;;;;5039978;28;20521;-71
2023/06/17 10:14:22;;;;;;;9.20;6.50;;;25.80;37.20;;;;;;5039965;28;20469;-73
2023/06/17 10:16:50;;;;;;;8.30;6.50;;;26.00;36.20;;;;;;5041062;28;20429;-71
2023/06/17 10:19:23;;;;;;;10.27;7.03;;;26.00;36.60;;;;;;5044172;28;20450;-72
2023/06/17 10:21:53;;;;;;;7.70;6.00;;;25.60;37.80;;;;;;5048105;28;20485;-72
2023/06/17 10:24:19;;;;;;;9.63;6.40;;;25.10;38.60;;;;;;5043366;28;20484;-72
2023/06/17 10:26:50;;;;;;;8.40;6.47;;;25.30;38.00;;;;;;5044235;28;20425;-73
2023/06/17 10:29:15;;;;;;;9.23;5.83;;;25.60;38.30;;;;;;5045249;28;20413;-71
2023/06/17 10:31:42;;;;;;;10.27;6.20;;;26.10;38.00;;;;;;5032430;28;20492;-72
2023/06/17 10:34:15;;;;;;;14.20;6.93;;;26.80;36.60;;;;;;5039852;28;20206;-72
2023/06/17 10:36:41;;;;;;;11.40;6.97;;;26.60;36.70;;;;;;5026298;28;20485;-72
2023/06/17 10:39:10;;;;;;;13.17;7.80;;;25.80;37.20;;;;;;5044982;28;20417;-71
2023/06/17 10:41:59;;;;;;;7.63;6.17;;;25.30;37.50;;;;;;5047295;28;20685;-71
2023/06/17 10:44:34;;;;;;;11.33;6.23;;;25.90;37.90;;;;;;5047819;28;20877;-71
2023/06/17 10:47:01;;;;;;;9.13;6.13;;;26.60;35.70;;;;;;5047816;28;20425;-72
2023/06/17 10:49:39;;;;;;;7.90;6.23;;;27.10;35.10;;;;;;5044328;28;20435;-73
2023/06/17 10:52:05;;;;;;;8.50;6.20;;;27.20;34.40;;;;;;5037149;28;20481;-73
2023/06/17 10:54:33;;;;;;;11.17;6.73;;;26.00;35.60;;;;;;5042630;28;20459;-72
2023/06/17 10:57:04;;;;;;;9.97;6.40;;;25.60;36.60;;;;;;5043337;28;20246;-71
2023/06/17 10:59:31;;;;;;;11.60;6.57;;;25.80;36.00;;;;;;5050832;28;20497;-72
2023/06/17 11:02:06;;;;;;;10.57;6.30;;;25.80;36.30;;;;;;5048875;28;20451;-70
2023/06/17 11:04:33;;;;;;;7.60;6.03;;;26.10;36.30;;;;;;5042659;28;20497;-75
2023/06/17 11:07:00;;;;;;;9.47;6.20;;;26.80;34.80;;;;;;5044100;28;20422;-73
2023/06/17 11:09:27;;;;;;;7.97;5.57;;;27.40;34.30;;;;;;5045806;28;20522;-72
2023/06/17 11:11:57;;;;;;;10.60;6.30;;;27.70;33.10;;;;;;5046518;28;20479;-73
2023/06/17 11:14:27;;;;;;;10.50;6.23;;;28.00;33.10;;;;;;5048836;28;20471;-73
2023/06/17 11:16:53;;;;;;;11.00;6.63;;;28.60;31.30;;;;;;5047775;28;20859;-73
2023/06/17 11:19:19;;;;;;;9.00;6.13;;;28.80;30.80;;;;;;5033327;28;20549;-72
2023/06/17 11:21:44;;;;;;;7.77;6.57;;;28.60;30.70;;;;;;5050348;28;20258;-73
2023/06/17 11:24:11;;;;;;;10.50;6.60;;;28.60;31.10;;;;;;5049100;28;20347;-72
2023/06/17 11:26:37;;;;;;;9.30;6.70;;;28.00;31.10;;;;;;5051744;28;20219;-72
2023/06/17 11:29:04;;;;;;;8.80;6.50;;;26.60;32.50;;;;;;5051328;28;20429;-72
2023/06/17 11:31:36;;;;;;;9.83;6.60;;;26.20;33.70;;;;;;5049000;28;20556;-71
2023/06/17 11:34:02;;;;;;;9.67;6.30;;;26.80;33.10;;;;;;5050567;28;20876;-72
2023/06/17 11:36:27;;;;;;;8.47;6.33;;;27.20;32.50;;;;;;5052107;28;20458;-73
2023/06/17 11:38:56;;;;;;;11.60;6.40;;;27.20;32.40;;;;;;5048179;28;20838;-73
2023/06/17 11:41:22;;;;;;;8.50;6.47;;;27.00;33.20;;;;;;5056711;28;20956;-72
2023/06/17 11:43:49;;;;;;;9.27;6.03;;;27.10;32.70;;;;;;5052418;28;21288;-73
2023/06/17 11:46:23;;;;;;;13.50;6.83;;;27.50;32.10;;;;;;5053234;28;20955;-74
2023/06/17 11:48:49;;;;;;;13.60;6.17;;;27.50;32.00;;;;;;5035045;28;20431;-73
2023/06/17 11:51:18;;;;;;;6.97;5.83;;;27.50;32.50;;;;;;5053475;28;20513;-72
2023/06/17 11:53:47;;;;;;;11.57;6.50;;;28.10;31.60;;;;;;5053478;28;20462;-72
2023/06/17 11:56:15;;;;;;;14.50;6.60;;;27.60;32.30;;;;;;5054615;28;20423;-72
2023/06/17 11:58:42;;;;;;;9.10;6.83;;;27.60;32.10;;;;;;5040652;28;20918;-71
2023/06/17 12:01:08;;;;;;;12.00;7.03;;;27.30;32.30;;;;;;5048928;28;21042;-72
2023/06/17 12:03:34;;;;;;;9.83;7.17;;;27.10;32.70;;;;;;5048961;28;20470;-72
2023/06/17 12:06:00;;;;;;;8.97;5.97;;;27.00;32.30;;;;;;5052150;28;20452;-72
2023/06/17 12:08:33;;;;;;;8.83;6.70;;;26.90;32.70;;;;;;5045913;28;20426;-73
2023/06/17 12:11:03;;;;;;;8.73;6.43;;;27.30;32.40;;;;;;5048399;28;20481;-71
2023/06/17 12:13:39;;;;;;;9.30;6.47;;;27.60;31.60;;;;;;5044916;28;20469;-73
2023/06/17 12:16:10;;;;;;;10.33;6.53;;;28.20;30.80;;;;;;5047126;28;20427;-72
2023/06/17 12:18:36;;;;;;;10.10;6.40;;;28.70;29.70;;;;;;5049991;28;20516;-71
2023/06/17 12:21:09;;;;;;;9.40;6.13;;;29.30;28.40;;;;;;5048282;28;20459;-73
2023/06/17 12:23:34;;;;;;;9.83;6.00;;;29.50;28.20;;;;;;5044515;28;20243;-72
2023/06/17 12:26:01;;;;;;;8.97;6.13;;;29.30;28.30;;;;;;5037728;28;20428;-73
2023/06/17 12:28:27;;;;;;;11.53;6.07;;;28.20;29.80;;;;;;5048171;28;20184;-73
2023/06/17 12:30:52;;;;;;;8.30;5.87;;;27.40;31.10;;;;;;5041507;28;20467;-72
2023/06/17 12:33:18;;;;;;;9.43;6.43;;;27.70;31.60;;;;;;5050277;28;20236;-74
2023/06/17 12:35:43;;;;;;;9.50;6.47;;;27.10;31.50;;;;;;5042418;28;20190;-72
2023/06/17 12:38:09;;;;;;;9.20;6.40;;;27.30;31.60;;;;;;5051512;28;20196;-72